createdAt,value
2022-12-24T00:00:11.557Z,92.45
2022-12-24T00:01:11.502Z,92.45
2022-12-24T00:02:11.568Z,92.55
2022-12-24T00:03:11.603Z,92.69
2022-12-24T00:04:11.486Z,92.90
2022-12-24T00:05:11.455Z,93.00
2022-12-24T00:06:11.437Z,93.10
2022-12-24T00:07:11.439Z,93.31
2022-12-24T00:08:11.416Z,93.41
2022-12-24T00:09:11.397Z,93.31
2022-12-24T00:10:11.383Z,93.26
2022-12-24T00:11:11.386Z,93.41
2022-12-24T00:12:11.375Z,93.41
2022-12-24T00:13:11.357Z,93.47
2022-12-24T00:14:11.336Z,93.71
2022-12-24T00:15:11.318Z,93.62
2022-12-24T00:16:11.314Z,93.37
2022-12-24T00:17:11.417Z,93.62
2022-12-24T00:18:11.279Z,93.51
2022-12-24T00:19:11.272Z,93.62
2022-12-24T00:20:11.298Z,93.82
2022-12-24T00:21:11.241Z,93.82
2022-12-24T00:22:11.256Z,93.41
2022-12-24T00:23:11.223Z,93.51
2022-12-24T00:24:11.215Z,93.21
2022-12-24T00:25:11.188Z,93.21
2022-12-24T00:26:11.189Z,92.90
2022-12-24T00:27:11.202Z,93.00
2022-12-24T00:28:11.167Z,92.55
2022-12-24T00:29:11.141Z,92.80
2022-12-24T00:30:11.128Z,92.49
2022-12-24T00:31:11.247Z,92.49
2022-12-24T00:32:11.129Z,92.39
2022-12-24T00:33:11.092Z,92.39
2022-12-24T00:34:11.080Z,92.59
2022-12-24T00:35:11.056Z,92.59
2022-12-24T00:36:11.074Z,92.08
2022-12-24T00:37:11.036Z,92.59
2022-12-24T00:38:11.032Z,92.49
2022-12-24T00:39:11.006Z,92.49
2022-12-24T00:40:10.991Z,92.69
2022-12-24T00:41:10.975Z,92.08
2022-12-24T00:42:10.985Z,91.47
2022-12-24T00:43:10.965Z,91.57
2022-12-24T00:44:10.945Z,91.27
2022-12-24T00:45:10.932Z,91.37
2022-12-24T00:46:10.976Z,91.47
2022-12-24T00:47:12.263Z,91.37
2022-12-24T00:48:10.907Z,91.57
2022-12-24T00:49:10.893Z,91.37
2022-12-24T00:50:10.877Z,90.96
2022-12-24T00:51:10.872Z,91.37
2022-12-24T00:52:10.850Z,91.82
2022-12-24T00:53:10.841Z,91.82
2022-12-24T00:54:10.807Z,91.00
2022-12-24T00:55:10.795Z,90.70
2022-12-24T00:56:10.781Z,90.49
2022-12-24T00:57:10.769Z,90.66
2022-12-24T00:58:10.775Z,90.66
2022-12-24T00:59:10.736Z,90.90
2022-12-24T01:00:10.825Z,90.70
2022-12-24T01:01:10.847Z,90.59
2022-12-24T01:02:10.939Z,91.11
2022-12-24T01:03:10.831Z,90.80
2022-12-24T01:04:10.677Z,90.59
2022-12-24T01:05:10.662Z,90.59
2022-12-24T01:06:10.651Z,90.80
2022-12-24T01:07:10.641Z,91.20
2022-12-24T01:08:10.656Z,91.20
2022-12-24T01:09:10.614Z,90.49
2022-12-24T01:10:10.602Z,89.73
2022-12-24T01:11:10.587Z,89.98
2022-12-24T01:12:10.568Z,89.94
2022-12-24T01:13:10.585Z,90.08
2022-12-24T01:14:10.567Z,89.84
2022-12-24T01:15:10.533Z,90.19
2022-12-24T01:16:10.554Z,90.08
2022-12-24T01:17:10.503Z,89.78
2022-12-24T01:18:10.508Z,89.67
2022-12-24T01:19:10.478Z,89.67
2022-12-24T01:20:10.467Z,89.47
2022-12-24T01:21:10.474Z,89.47
2022-12-24T01:22:10.448Z,89.58
2022-12-24T01:23:10.444Z,89.58
2022-12-24T01:24:10.437Z,89.67
2022-12-24T01:25:10.403Z,89.78
2022-12-24T01:26:10.390Z,89.06
2022-12-24T01:27:10.378Z,88.76
2022-12-24T01:28:10.377Z,88.04
2022-12-24T01:29:10.345Z,88.55
2022-12-24T01:30:10.337Z,88.76
2022-12-24T01:31:10.407Z,88.45
2022-12-24T01:32:10.312Z,88.76
2022-12-24T01:33:10.311Z,88.76
2022-12-24T01:34:10.283Z,87.84
2022-12-24T01:35:10.271Z,87.84
2022-12-24T01:36:10.275Z,87.53
2022-12-24T01:37:10.240Z,87.12
2022-12-24T01:38:10.252Z,87.32
2022-12-24T01:39:10.232Z,87.43
2022-12-24T01:40:10.234Z,87.23
2022-12-24T01:41:10.195Z,87.12
2022-12-24T01:42:10.183Z,86.91
2022-12-24T01:43:10.186Z,87.12
2022-12-24T01:44:10.153Z,86.61
2022-12-24T01:45:10.162Z,86.41
2022-12-24T01:46:10.168Z,86.20
2022-12-24T01:47:10.117Z,85.79
2022-12-24T01:48:10.094Z,85.89
2022-12-24T01:49:10.104Z,85.49
2022-12-24T01:50:10.067Z,85.49
2022-12-24T01:51:10.062Z,85.28
2022-12-24T01:52:10.045Z,85.28
2022-12-24T01:53:10.039Z,84.77
2022-12-24T01:54:10.032Z,84.77
2022-12-24T01:55:10.025Z,85.08
2022-12-24T01:56:10.019Z,84.67
2022-12-24T01:57:09.987Z,84.57
2022-12-24T01:58:09.990Z,84.77
2022-12-24T01:59:09.972Z,84.47
2022-12-24T02:00:09.935Z,84.36
2022-12-24T02:01:10.018Z,84.16
2022-12-24T02:02:10.005Z,84.12
2022-12-24T02:03:09.941Z,84.16
2022-12-24T02:04:09.910Z,84.16
2022-12-24T02:05:09.872Z,83.95
2022-12-24T02:06:09.863Z,83.81
2022-12-24T02:07:09.874Z,83.61
2022-12-24T02:08:09.845Z,83.71
2022-12-24T02:09:09.837Z,83.81
2022-12-24T02:10:09.815Z,84.01
2022-12-24T02:11:09.796Z,83.81
2022-12-24T02:12:09.797Z,84.01
2022-12-24T02:13:09.770Z,84.47
2022-12-24T02:14:09.772Z,84.88
2022-12-24T02:15:09.753Z,84.77
2022-12-24T02:16:09.862Z,84.98
2022-12-24T02:17:09.716Z,85.38
2022-12-24T02:18:09.709Z,85.49
2022-12-24T02:19:09.707Z,85.59
2022-12-24T02:20:09.679Z,85.49
2022-12-24T02:21:09.666Z,85.49
2022-12-24T02:22:09.651Z,85.69
2022-12-24T02:23:09.654Z,85.79
2022-12-24T02:24:09.660Z,85.79
2022-12-24T02:25:09.610Z,85.59
2022-12-24T02:26:09.601Z,85.59
2022-12-24T02:27:09.587Z,85.69
2022-12-24T02:28:09.598Z,85.69
2022-12-24T02:29:09.590Z,85.69
2022-12-24T02:30:09.542Z,85.69
2022-12-24T02:31:09.582Z,85.38
2022-12-24T02:32:09.523Z,85.75
2022-12-24T02:33:09.509Z,85.86
2022-12-24T02:34:09.536Z,85.79
2022-12-24T02:35:09.487Z,86.20
2022-12-24T02:36:09.466Z,85.89
2022-12-24T02:37:09.462Z,86.20
2022-12-24T02:38:09.450Z,86.20
2022-12-24T02:39:09.454Z,86.10
2022-12-24T02:40:16.025Z,85.59
2022-12-24T02:41:09.403Z,86.20
2022-12-24T02:42:09.395Z,86.10
2022-12-24T02:43:09.381Z,86.41
2022-12-24T02:44:09.395Z,86.30
2022-12-24T02:45:09.361Z,86.61
2022-12-24T02:46:09.400Z,86.41
2022-12-24T02:47:09.413Z,86.61
2022-12-24T02:48:09.326Z,86.30
2022-12-24T02:49:09.321Z,86.10
2022-12-24T02:50:09.292Z,85.86
2022-12-24T02:51:09.272Z,86.20
2022-12-24T02:52:09.259Z,86.10
2022-12-24T02:53:09.254Z,86.10
2022-12-24T02:54:09.233Z,86.61
2022-12-24T02:55:09.239Z,86.41
2022-12-24T02:56:09.211Z,86.30
2022-12-24T02:57:09.193Z,86.00
2022-12-24T02:58:09.183Z,86.06
2022-12-24T02:59:09.174Z,86.41
2022-12-24T03:00:09.187Z,86.41
2022-12-24T03:01:09.349Z,85.86
2022-12-24T03:02:09.276Z,86.00
2022-12-24T03:03:09.216Z,85.65
2022-12-24T03:04:09.113Z,85.75
2022-12-24T03:05:09.108Z,85.75
2022-12-24T03:06:09.073Z,86.16
2022-12-24T03:07:09.080Z,86.20
2022-12-24T03:08:09.053Z,86.30
2022-12-24T03:09:09.039Z,86.20
2022-12-24T03:10:09.043Z,86.30
2022-12-24T03:11:09.010Z,86.10
2022-12-24T03:12:08.995Z,86.20
2022-12-24T03:13:08.983Z,86.51
2022-12-24T03:14:08.973Z,86.61
2022-12-24T03:15:08.975Z,86.82
2022-12-24T03:16:09.110Z,86.71
2022-12-24T03:17:08.939Z,86.51
2022-12-24T03:18:08.919Z,86.51
2022-12-24T03:19:09.178Z,86.20
2022-12-24T03:20:08.936Z,85.89
2022-12-24T03:21:08.883Z,86.30
2022-12-24T03:22:08.865Z,86.10
2022-12-24T03:23:08.853Z,86.30
2022-12-24T03:24:08.840Z,86.51
2022-12-24T03:25:08.846Z,86.41
2022-12-24T03:26:08.815Z,86.41
2022-12-24T03:27:08.814Z,86.10
2022-12-24T03:28:08.789Z,86.00
2022-12-24T03:29:08.786Z,86.10
2022-12-24T03:30:08.779Z,86.10
2022-12-24T03:31:08.828Z,86.30
2022-12-24T03:32:08.871Z,86.20
2022-12-24T03:33:08.726Z,86.30
2022-12-24T03:34:08.704Z,86.00
2022-12-24T03:35:08.718Z,86.00
2022-12-24T03:36:08.680Z,86.00
2022-12-24T03:37:08.666Z,86.10
2022-12-24T03:38:08.652Z,86.10
2022-12-24T03:39:08.641Z,86.30
2022-12-24T03:40:08.650Z,86.61
2022-12-24T03:41:08.621Z,86.51
2022-12-24T03:42:08.606Z,86.41
2022-12-24T03:43:08.593Z,86.00
2022-12-24T03:44:08.579Z,86.10
2022-12-24T03:45:08.588Z,86.20
2022-12-24T03:46:08.673Z,86.30
2022-12-24T03:47:08.535Z,86.10
2022-12-24T03:48:08.547Z,86.20
2022-12-24T03:49:08.515Z,85.89
2022-12-24T03:50:08.526Z,85.79
2022-12-24T03:51:08.483Z,85.79
2022-12-24T03:52:08.467Z,86.00
2022-12-24T03:53:08.459Z,86.00
2022-12-24T03:54:08.462Z,86.10
2022-12-24T03:55:08.447Z,85.79
2022-12-24T03:56:08.413Z,85.69
2022-12-24T03:57:08.414Z,86.00
2022-12-24T03:58:08.393Z,86.20
2022-12-24T03:59:08.378Z,86.30
2022-12-24T04:00:08.391Z,86.41
2022-12-24T04:01:08.462Z,86.41
2022-12-24T04:02:08.617Z,86.51
2022-12-24T04:03:08.424Z,86.51
2022-12-24T04:04:08.363Z,86.55
2022-12-24T04:05:08.313Z,86.76
2022-12-24T04:06:08.310Z,86.61
2022-12-24T04:07:08.302Z,86.61
2022-12-24T04:08:08.256Z,86.65
2022-12-24T04:09:08.269Z,86.96
2022-12-24T04:10:08.234Z,86.91
2022-12-24T04:11:10.103Z,87.26
2022-12-24T04:12:08.217Z,87.26
2022-12-24T04:13:08.204Z,87.26
2022-12-24T04:14:08.182Z,87.37
2022-12-24T04:15:08.170Z,87.47
2022-12-24T04:16:08.212Z,87.47
2022-12-24T04:17:08.137Z,87.57
2022-12-24T04:18:08.128Z,87.67
2022-12-24T04:19:08.116Z,87.88
2022-12-24T04:20:08.147Z,87.47
2022-12-24T04:21:08.108Z,87.57
2022-12-24T04:22:08.087Z,87.88
2022-12-24T04:23:08.073Z,88.18
2022-12-24T04:24:08.047Z,88.08
2022-12-24T04:25:08.038Z,88.29
2022-12-24T04:26:08.034Z,88.18
2022-12-24T04:27:08.024Z,88.49
2022-12-24T04:28:07.988Z,88.59
2022-12-24T04:29:07.983Z,88.70
2022-12-24T04:30:07.985Z,88.79
2022-12-24T04:31:07.969Z,89.04
2022-12-24T04:32:07.983Z,88.84
2022-12-24T04:33:07.934Z,89.04
2022-12-24T04:34:07.915Z,89.04
2022-12-24T04:35:07.902Z,89.25
2022-12-24T04:36:07.946Z,89.25
2022-12-24T04:37:07.889Z,89.15
2022-12-24T04:38:07.863Z,89.45
2022-12-24T04:39:07.855Z,89.35
2022-12-24T04:40:07.833Z,89.15
2022-12-24T04:41:07.846Z,89.25
2022-12-24T04:42:07.812Z,89.15
2022-12-24T04:43:07.798Z,89.15
2022-12-24T04:44:07.780Z,89.25
2022-12-24T04:45:07.766Z,89.45
2022-12-24T04:46:07.895Z,89.56
2022-12-24T04:47:07.752Z,89.76
2022-12-24T04:48:07.729Z,89.86
2022-12-24T04:49:07.714Z,89.65
2022-12-24T04:50:07.707Z,89.86
2022-12-24T04:51:07.705Z,89.86
2022-12-24T04:52:07.695Z,89.76
2022-12-24T04:53:07.673Z,89.86
2022-12-24T04:54:07.642Z,89.86
2022-12-24T04:55:07.681Z,89.97
2022-12-24T04:56:07.636Z,89.97
2022-12-24T04:57:07.612Z,90.17
2022-12-24T04:58:07.598Z,90.17
2022-12-24T04:59:07.587Z,90.06
2022-12-24T05:00:07.571Z,90.17
2022-12-24T05:01:07.652Z,90.37
2022-12-24T05:02:07.739Z,90.27
2022-12-24T05:03:07.560Z,90.27
2022-12-24T05:04:07.512Z,90.06
2022-12-24T05:05:07.504Z,90.27
2022-12-24T05:06:07.511Z,90.58
2022-12-24T05:07:07.478Z,90.68
2022-12-24T05:08:07.492Z,90.68
2022-12-24T05:09:07.462Z,90.78
2022-12-24T05:10:07.452Z,90.78
2022-12-24T05:11:07.448Z,90.68
2022-12-24T05:12:07.411Z,90.58
2022-12-24T05:13:07.406Z,90.47
2022-12-24T05:14:07.383Z,90.37
2022-12-24T05:15:07.376Z,90.58
2022-12-24T05:16:07.382Z,90.68
2022-12-24T05:17:07.457Z,90.68
2022-12-24T05:18:07.332Z,90.68
2022-12-24T05:19:07.315Z,90.78
2022-12-24T05:20:07.301Z,90.58
2022-12-24T05:21:07.294Z,90.58
2022-12-24T05:22:07.286Z,90.78
2022-12-24T05:23:07.289Z,90.88
2022-12-24T05:24:07.272Z,90.78
2022-12-24T05:25:07.241Z,90.78
2022-12-24T05:26:07.221Z,90.78
2022-12-24T05:27:07.224Z,90.68
2022-12-24T05:28:07.193Z,90.78
2022-12-24T05:29:07.190Z,90.78
2022-12-24T05:30:07.166Z,90.78
2022-12-24T05:31:07.204Z,90.47
2022-12-24T05:32:07.168Z,90.37
2022-12-24T05:33:07.133Z,90.37
2022-12-24T05:34:07.118Z,90.27
2022-12-24T05:35:07.117Z,90.27
2022-12-24T05:36:07.086Z,90.37
2022-12-24T05:37:07.093Z,90.58
2022-12-24T05:38:07.060Z,90.78
2022-12-24T05:39:11.606Z,90.78
2022-12-24T05:40:07.060Z,90.99
2022-12-24T05:41:07.025Z,90.99
2022-12-24T05:42:07.039Z,91.09
2022-12-24T05:43:07.010Z,91.29
2022-12-24T05:44:07.021Z,91.09
2022-12-24T05:45:06.971Z,91.09
2022-12-24T05:46:07.018Z,91.19
2022-12-24T05:47:06.974Z,91.29
2022-12-24T05:48:06.930Z,91.70
2022-12-24T05:49:06.923Z,91.60
2022-12-24T05:50:06.904Z,91.70
2022-12-24T05:51:06.893Z,91.70
2022-12-24T05:52:06.896Z,91.74
2022-12-24T05:53:06.878Z,91.80
2022-12-24T05:54:06.848Z,91.91
2022-12-24T05:55:06.849Z,92.15
2022-12-24T05:56:06.853Z,92.25
2022-12-24T05:57:06.825Z,92.36
2022-12-24T05:58:06.806Z,92.46
2022-12-24T05:59:06.790Z,92.56
2022-12-24T06:00:06.768Z,92.77
2022-12-24T06:01:06.814Z,92.77
2022-12-24T06:02:06.826Z,92.87
2022-12-24T06:03:06.794Z,92.97
2022-12-24T06:04:06.734Z,93.07
2022-12-24T06:05:06.780Z,93.18
2022-12-24T06:06:06.701Z,93.28
2022-12-24T06:07:06.696Z,93.28
2022-12-24T06:08:06.680Z,93.18
2022-12-24T06:09:06.651Z,93.18
2022-12-24T06:10:06.652Z,93.28
2022-12-24T06:11:06.631Z,93.28
2022-12-24T06:12:06.655Z,93.28
2022-12-24T06:13:06.600Z,93.38
2022-12-24T06:14:06.587Z,93.59
2022-12-24T06:15:06.572Z,93.59
2022-12-24T06:16:06.639Z,93.59
2022-12-24T06:17:06.558Z,93.69
2022-12-24T06:18:06.530Z,93.69
2022-12-24T06:19:06.517Z,93.69
2022-12-24T06:20:06.507Z,93.69
2022-12-24T06:21:06.490Z,93.79
2022-12-24T06:22:06.480Z,93.99
2022-12-24T06:23:06.478Z,94.10
2022-12-24T06:24:06.451Z,94.20
2022-12-24T06:25:06.442Z,94.10
2022-12-24T06:26:06.431Z,93.99
2022-12-24T06:27:06.423Z,93.89
2022-12-24T06:28:06.433Z,93.99
2022-12-24T06:29:06.393Z,93.85
2022-12-24T06:30:06.376Z,93.85
2022-12-24T06:31:06.437Z,93.95
2022-12-24T06:32:06.349Z,93.99
2022-12-24T06:33:06.345Z,93.85
2022-12-24T06:34:06.326Z,93.95
2022-12-24T06:35:06.301Z,93.95
2022-12-24T06:36:10.423Z,93.95
2022-12-24T06:37:06.280Z,94.10
2022-12-24T06:38:06.275Z,94.10
2022-12-24T06:39:06.251Z,94.30
2022-12-24T06:40:06.247Z,94.26
2022-12-24T06:41:06.234Z,94.30
2022-12-24T06:42:06.213Z,94.20
2022-12-24T06:43:06.211Z,94.15
2022-12-24T06:44:06.203Z,94.40
2022-12-24T06:45:08.619Z,94.30
2022-12-24T06:46:06.257Z,94.36
2022-12-24T06:47:06.144Z,94.30
2022-12-24T06:48:06.146Z,94.36
2022-12-24T06:49:06.114Z,94.15
2022-12-24T06:50:06.107Z,94.26
2022-12-24T06:51:06.099Z,94.36
2022-12-24T06:52:06.076Z,94.46
2022-12-24T06:53:06.074Z,94.71
2022-12-24T06:54:06.045Z,94.71
2022-12-24T06:55:06.030Z,94.71
2022-12-24T06:56:06.022Z,94.60
2022-12-24T06:57:06.006Z,94.56
2022-12-24T06:58:06.038Z,94.71
2022-12-24T06:59:05.978Z,94.81
2022-12-24T07:00:05.994Z,94.92
2022-12-24T07:01:05.998Z,95.02
2022-12-24T07:02:06.265Z,94.87
2022-12-24T07:03:05.938Z,95.07
2022-12-24T07:04:05.937Z,95.28
2022-12-24T07:05:05.898Z,95.43
2022-12-24T07:06:05.902Z,95.32
2022-12-24T07:07:05.875Z,95.43
2022-12-24T07:08:05.879Z,95.43
2022-12-24T07:09:05.847Z,95.32
2022-12-24T07:10:05.836Z,95.22
2022-12-24T07:11:05.824Z,95.22
2022-12-24T07:12:05.805Z,95.22
2022-12-24T07:13:05.869Z,95.32
2022-12-24T07:14:05.785Z,95.12
2022-12-24T07:15:05.772Z,94.92
2022-12-24T07:16:05.901Z,95.07
2022-12-24T07:17:05.815Z,95.12
2022-12-24T07:18:05.745Z,94.92
2022-12-24T07:19:05.711Z,94.77
2022-12-24T07:20:05.712Z,94.77
2022-12-24T07:21:05.687Z,94.71
2022-12-24T07:22:09.029Z,94.36
2022-12-24T07:23:05.684Z,94.36
2022-12-24T07:24:05.643Z,94.46
2022-12-24T07:25:05.631Z,94.26
2022-12-24T07:26:05.615Z,94.26
2022-12-24T07:27:05.601Z,94.26
2022-12-24T07:28:05.594Z,94.36
2022-12-24T07:29:05.602Z,94.36
2022-12-24T07:30:05.566Z,94.26
2022-12-24T07:31:05.662Z,94.26
2022-12-24T07:32:05.566Z,94.15
2022-12-24T07:33:05.533Z,94.15
2022-12-24T07:34:05.533Z,94.15
2022-12-24T07:35:05.499Z,94.06
2022-12-24T07:36:05.526Z,94.06
2022-12-24T07:37:05.472Z,94.06
2022-12-24T07:38:05.467Z,94.15
2022-12-24T07:39:05.459Z,94.06
2022-12-24T07:40:05.433Z,93.95
2022-12-24T07:41:05.428Z,93.95
2022-12-24T07:42:05.413Z,93.85
2022-12-24T07:43:05.397Z,93.95
2022-12-24T07:44:05.421Z,93.70
2022-12-24T07:45:05.375Z,93.65
2022-12-24T07:46:05.367Z,93.40
2022-12-24T07:47:05.367Z,93.29
2022-12-24T07:48:05.353Z,93.19
2022-12-24T07:49:05.335Z,93.09
2022-12-24T07:50:05.366Z,92.88
2022-12-24T07:51:05.292Z,92.88
2022-12-24T07:52:05.279Z,92.78
2022-12-24T07:53:05.268Z,92.78
2022-12-24T07:54:05.272Z,92.17
2022-12-24T07:55:05.401Z,92.02
2022-12-24T07:56:12.260Z,91.82
2022-12-24T07:57:06.208Z,91.61
2022-12-24T07:58:05.198Z,91.52
2022-12-24T07:59:05.195Z,91.61
2022-12-24T08:00:05.176Z,91.61
2022-12-24T08:01:05.221Z,91.52
2022-12-24T08:02:05.265Z,91.52
2022-12-24T08:03:05.265Z,91.52
2022-12-24T08:04:05.176Z,91.52
2022-12-24T08:05:05.124Z,91.52
2022-12-24T08:06:05.108Z,91.82
2022-12-24T08:07:05.077Z,91.72
2022-12-24T08:08:05.066Z,91.52
2022-12-24T08:09:05.068Z,91.52
2022-12-24T08:10:05.040Z,91.72
2022-12-24T08:11:05.039Z,91.82
2022-12-24T08:12:05.017Z,91.92
2022-12-24T08:13:05.001Z,92.02
2022-12-24T08:14:05.018Z,92.02
2022-12-24T08:15:04.976Z,91.82
2022-12-24T08:16:05.004Z,91.92
2022-12-24T08:17:04.997Z,92.23
2022-12-24T08:18:04.940Z,92.68
2022-12-24T08:19:04.949Z,93.05
2022-12-24T08:20:04.936Z,93.50
2022-12-24T08:21:04.911Z,93.60
2022-12-24T08:22:04.890Z,93.91
2022-12-24T08:23:04.869Z,93.91
2022-12-24T08:24:04.878Z,93.91
2022-12-24T08:25:04.847Z,93.91
2022-12-24T08:26:04.831Z,93.91
2022-12-24T08:27:04.822Z,94.01
2022-12-24T08:28:04.809Z,94.11
2022-12-24T08:29:04.815Z,94.32
2022-12-24T08:30:04.785Z,94.21
2022-12-24T08:31:04.793Z,94.32
2022-12-24T08:32:04.987Z,94.11
2022-12-24T08:33:04.741Z,94.01
2022-12-24T08:34:04.746Z,94.11
2022-12-24T08:35:04.718Z,94.01
2022-12-24T08:36:04.729Z,94.11
2022-12-24T08:37:04.707Z,93.91
2022-12-24T08:38:04.674Z,93.80
2022-12-24T08:39:04.686Z,93.91
2022-12-24T08:40:04.652Z,93.76
2022-12-24T08:41:04.639Z,93.86
2022-12-24T08:42:04.664Z,93.86
2022-12-24T08:43:04.609Z,93.96
2022-12-24T08:44:04.620Z,93.66
2022-12-24T08:45:04.580Z,93.76
2022-12-24T08:46:04.648Z,93.66
2022-12-24T08:47:04.556Z,93.55
2022-12-24T08:48:04.548Z,93.76
2022-12-24T08:49:04.560Z,93.76
2022-12-24T08:50:04.521Z,93.76
2022-12-24T08:51:04.508Z,94.27
2022-12-24T08:52:04.526Z,94.42
2022-12-24T08:53:04.480Z,94.68
2022-12-24T08:54:04.471Z,94.82
2022-12-24T08:55:04.469Z,94.73
2022-12-24T08:56:04.456Z,94.62
2022-12-24T08:57:04.451Z,94.73
2022-12-24T08:58:04.428Z,94.73
2022-12-24T08:59:04.431Z,94.62
2022-12-24T09:00:04.403Z,94.82
2022-12-24T09:01:04.511Z,94.82
2022-12-24T09:02:04.499Z,94.42
2022-12-24T09:03:04.451Z,94.62
2022-12-24T09:04:04.342Z,94.73
2022-12-24T09:05:04.342Z,94.82
2022-12-24T09:06:04.327Z,94.82
2022-12-24T09:07:04.300Z,94.62
2022-12-24T09:08:04.303Z,94.32
2022-12-24T09:09:04.281Z,94.52
2022-12-24T09:10:04.269Z,94.73
2022-12-24T09:11:04.252Z,95.13
2022-12-24T09:12:04.233Z,95.95
2022-12-24T09:13:04.219Z,96.71
2022-12-24T09:14:04.210Z,97.42
2022-12-24T09:15:04.618Z,97.83
2022-12-24T09:16:04.245Z,98.70
2022-12-24T09:17:04.262Z,99.21
2022-12-24T09:18:04.169Z,99.82
2022-12-24T09:19:04.137Z,99.93
2022-12-24T09:20:04.144Z,99.99
2022-12-24T09:21:04.116Z,99.99
2022-12-24T09:22:04.105Z,99.99
2022-12-24T09:23:04.091Z,99.99
2022-12-24T09:24:04.104Z,99.99
2022-12-24T09:25:04.083Z,99.99
2022-12-24T09:26:04.051Z,99.99
2022-12-24T09:27:04.041Z,99.99
2022-12-24T09:28:04.026Z,99.99
2022-12-24T09:29:04.011Z,99.99
2022-12-24T09:30:04.018Z,99.99
2022-12-24T09:31:04.002Z,99.99
2022-12-24T09:32:04.042Z,99.99
2022-12-24T09:33:03.967Z,99.99
2022-12-24T09:34:03.948Z,99.99
2022-12-24T09:35:03.957Z,99.99
2022-12-24T09:36:03.925Z,99.99
2022-12-24T09:37:03.916Z,99.99
2022-12-24T09:38:03.903Z,99.99
2022-12-24T09:39:03.879Z,99.99
2022-12-24T09:40:03.919Z,99.99
2022-12-24T09:41:08.907Z,99.99
2022-12-24T09:42:04.848Z,99.99
2022-12-24T09:43:03.826Z,99.99
2022-12-24T09:44:03.820Z,99.99
2022-12-24T09:45:03.826Z,99.99
2022-12-24T09:46:03.836Z,99.99
2022-12-24T09:47:09.724Z,99.99
2022-12-24T09:48:03.787Z,99.99
2022-12-24T09:49:03.750Z,99.99
2022-12-24T09:50:03.754Z,99.99
2022-12-24T09:51:03.732Z,99.99
2022-12-24T09:52:03.711Z,99.99
2022-12-24T09:53:03.719Z,99.99
2022-12-24T09:54:03.694Z,99.99
2022-12-24T09:55:03.738Z,99.99
2022-12-24T09:56:03.688Z,99.99
2022-12-24T09:57:03.653Z,99.99
2022-12-24T09:58:03.632Z,99.99
2022-12-24T09:59:03.613Z,99.89
2022-12-24T10:00:03.629Z,99.99
2022-12-24T10:01:03.737Z,99.99
2022-12-24T10:02:03.822Z,99.99
2022-12-24T10:03:03.613Z,99.99
2022-12-24T10:04:03.554Z,99.99
2022-12-24T10:05:03.543Z,99.99
2022-12-24T10:06:03.545Z,99.99
2022-12-24T10:07:03.522Z,99.99
2022-12-24T10:08:03.512Z,99.99
2022-12-24T10:09:03.506Z,99.99
2022-12-24T10:10:03.480Z,99.99
2022-12-24T10:11:03.478Z,99.99
2022-12-24T10:12:03.484Z,99.99
2022-12-24T10:13:03.446Z,99.99
2022-12-24T10:14:03.424Z,99.99
2022-12-24T10:15:03.413Z,99.99
2022-12-24T10:16:03.418Z,99.99
2022-12-24T10:17:03.452Z,99.99
2022-12-24T10:18:03.374Z,99.99
2022-12-24T10:19:03.362Z,99.99
2022-12-24T10:20:03.344Z,99.99
2022-12-24T10:21:03.352Z,99.99
2022-12-24T10:22:03.320Z,99.99
2022-12-24T10:23:03.343Z,99.99
2022-12-24T10:24:03.295Z,99.99
2022-12-24T10:25:03.291Z,99.99
2022-12-24T10:26:03.282Z,99.99
2022-12-24T10:27:03.253Z,99.99
2022-12-24T10:28:03.265Z,99.99
2022-12-24T10:29:03.232Z,99.99
2022-12-24T10:30:03.221Z,99.99
2022-12-24T10:31:03.424Z,99.99
2022-12-24T10:32:03.188Z,99.99
2022-12-24T10:33:03.174Z,99.99
2022-12-24T10:34:03.166Z,99.99
2022-12-24T10:35:03.153Z,99.99
2022-12-24T10:36:08.191Z,99.99
2022-12-24T10:37:03.188Z,99.99
2022-12-24T10:38:03.128Z,99.99
2022-12-24T10:39:03.094Z,99.99
2022-12-24T10:40:03.105Z,99.99
2022-12-24T10:41:03.082Z,99.99
2022-12-24T10:42:03.067Z,99.99
2022-12-24T10:43:03.059Z,99.99
2022-12-24T10:44:03.092Z,99.99
2022-12-24T10:45:03.035Z,99.99
2022-12-24T10:46:03.040Z,99.99
2022-12-24T10:47:03.004Z,99.99
2022-12-24T10:48:02.985Z,99.99
2022-12-24T10:49:02.975Z,99.99
2022-12-24T10:50:02.955Z,99.99
2022-12-24T10:51:02.957Z,99.99
2022-12-24T10:52:02.932Z,99.99
2022-12-24T10:53:02.915Z,99.99
2022-12-24T10:54:02.919Z,99.99
2022-12-24T10:55:02.904Z,99.99
2022-12-24T10:56:02.900Z,99.99
2022-12-24T10:57:02.917Z,99.99
2022-12-24T10:58:02.858Z,99.99
2022-12-24T10:59:02.839Z,99.99
2022-12-24T11:00:02.851Z,98.98
2022-12-24T11:01:03.105Z,99.79
2022-12-24T11:02:02.940Z,99.90
2022-12-24T11:03:03.063Z,99.69
2022-12-24T11:04:02.797Z,99.90
2022-12-24T11:05:02.757Z,99.29
2022-12-24T11:06:02.810Z,99.18
2022-12-24T11:07:02.738Z,99.39
2022-12-24T11:08:02.790Z,99.18
2022-12-24T11:09:02.716Z,98.61
2022-12-24T11:10:02.730Z,98.57
2022-12-24T11:11:02.709Z,98.68
2022-12-24T11:12:08.671Z,98.88
2022-12-24T11:13:35.626Z,98.88
2022-12-24T11:14:03.647Z,98.68
2022-12-24T11:15:02.662Z,98.88
2022-12-24T11:16:02.758Z,98.06
2022-12-24T11:17:02.607Z,98.36
2022-12-24T11:18:02.594Z,98.88
2022-12-24T11:19:02.586Z,98.47
2022-12-24T11:20:02.577Z,98.77
2022-12-24T11:21:02.556Z,98.36
2022-12-24T11:22:02.560Z,98.47
2022-12-24T11:23:02.531Z,98.36
2022-12-24T11:24:02.516Z,98.77
2022-12-24T11:25:02.508Z,97.86
2022-12-24T11:26:02.491Z,97.96
2022-12-24T11:27:02.500Z,98.06
2022-12-24T11:28:02.465Z,97.34
2022-12-24T11:29:02.446Z,97.09
2022-12-24T11:30:07.983Z,96.84
2022-12-24T11:31:03.488Z,95.32
2022-12-24T11:32:02.442Z,95.21
2022-12-24T11:33:02.416Z,95.48
2022-12-24T11:34:02.384Z,94.66
2022-12-24T11:35:02.374Z,94.26
2022-12-24T11:36:02.406Z,94.76
2022-12-24T11:37:02.368Z,94.62
2022-12-24T11:38:02.330Z,93.90
2022-12-24T11:39:02.322Z,94.01
2022-12-24T11:40:02.322Z,93.74
2022-12-24T11:41:02.291Z,94.05
2022-12-24T11:42:02.296Z,93.74
2022-12-24T11:43:02.268Z,94.26
2022-12-24T11:44:02.262Z,94.46
2022-12-24T11:45:02.266Z,94.46
2022-12-24T11:46:02.289Z,93.44
2022-12-24T11:47:02.231Z,92.42
2022-12-24T11:48:02.227Z,92.01
2022-12-24T11:49:07.636Z,90.83
2022-12-24T11:50:17.537Z,90.89
2022-12-24T11:51:02.169Z,90.38
2022-12-24T11:52:02.168Z,89.87
2022-12-24T11:53:02.149Z,90.18
2022-12-24T11:54:02.150Z,90.38
2022-12-24T11:55:02.114Z,90.38
2022-12-24T11:56:02.104Z,90.24
2022-12-24T11:57:02.105Z,89.63
2022-12-24T11:58:02.087Z,90.03
2022-12-24T11:59:02.069Z,89.94
2022-12-24T12:00:02.063Z,89.83
2022-12-24T12:01:02.047Z,89.83
2022-12-24T12:02:02.142Z,89.53
2022-12-24T12:03:02.109Z,88.81
2022-12-24T12:04:02.116Z,89.12
2022-12-24T12:05:01.994Z,88.57
2022-12-24T12:06:01.975Z,88.12
2022-12-24T12:07:02.296Z,87.47
2022-12-24T12:08:01.943Z,85.49
2022-12-24T12:09:01.931Z,84.99
2022-12-24T12:10:01.917Z,84.78
2022-12-24T12:11:01.910Z,86.31
2022-12-24T12:12:01.908Z,85.84
2022-12-24T12:13:01.885Z,86.25
2022-12-24T12:14:01.868Z,86.35
2022-12-24T12:15:01.862Z,86.39
2022-12-24T12:16:01.906Z,86.90
2022-12-24T12:17:01.847Z,87.14
2022-12-24T12:18:01.817Z,87.85
2022-12-24T12:19:01.821Z,88.36
2022-12-24T12:20:01.805Z,87.96
2022-12-24T12:21:01.793Z,88.26
2022-12-24T12:22:01.787Z,88.16
2022-12-24T12:23:01.768Z,88.61
2022-12-24T12:24:01.755Z,88.81
2022-12-24T12:25:01.726Z,88.61
2022-12-24T12:26:01.725Z,89.01
2022-12-24T12:27:01.730Z,89.16
2022-12-24T12:28:01.680Z,89.57
2022-12-24T12:29:01.683Z,89.67
2022-12-24T12:30:01.666Z,89.83
2022-12-24T12:31:01.691Z,89.57
2022-12-24T12:32:01.750Z,90.03
2022-12-24T12:33:01.838Z,90.28
2022-12-24T12:34:01.609Z,89.87
2022-12-24T12:35:01.590Z,89.87
2022-12-24T12:36:01.615Z,90.01
2022-12-24T12:37:01.584Z,90.53
2022-12-24T12:38:01.620Z,90.69
2022-12-24T12:39:01.546Z,90.79
2022-12-24T12:40:01.527Z,90.38
2022-12-24T12:41:01.569Z,90.38
2022-12-24T12:42:01.502Z,88.53
2022-12-24T12:43:01.507Z,86.71
2022-12-24T12:44:01.479Z,84.22
2022-12-24T12:45:01.477Z,82.01
2022-12-24T12:46:01.459Z,80.01
2022-12-24T12:47:01.541Z,78.62
2022-12-24T12:48:01.437Z,78.62
2022-12-24T12:49:03.029Z,79.60
2022-12-24T12:50:01.406Z,82.64
2022-12-24T12:51:01.387Z,84.84
2022-12-24T12:52:01.396Z,85.05